Terminal Aerodrome Forecast
Issued by NWS Wilmington, OH

Current Version | Previous Version | Graphics & Text | Print | Product List | Glossary On
Versions: 1 2 3 4 5 6 7 8 9 10 11 12 13 14 15 16 17 18
222
FTUS41 KILN 201727
TAFDAY
TAF
KDAY 201727Z 2018/2118 23012G19KT P6SM BKN200
     FM202100 23010KT P6SM BKN025
     FM202300 22008KT P6SM OVC015
     FM210200 21007KT P6SM VCSH OVC008
     FM210600 21008KT 5SM BR VCSH OVC006
     FM211400 20007KT P6SM OVC008
     FM211700 20011KT P6SM OVC012=

USA.gov is the U.S. government's official web portal to all federal, state and local government web resources and services.